sensor_id;sensor_type;location;lat;lon;timestamp;P1;durP1;ratioP1;P2;durP2;ratioP2
76566;SDS011;65428;53.194;6.132;2023-02-15T00:00:53;397.63;;;84.07;;
76566;SDS011;65428;53.194;6.132;2023-02-15T00:03:21;174.65;;;72.18;;
76566;SDS011;65428;53.194;6.132;2023-02-15T00:05:47;286.57;;;79.60;;
76566;SDS011;65428;53.194;6.132;2023-02-15T00:08:13;275.07;;;79.93;;
76566;SDS011;65428;53.194;6.132;2023-02-15T00:10:38;225.23;;;71.18;;
76566;SDS011;65428;53.194;6.132;2023-02-15T00:13:04;487.47;;;85.33;;
76566;SDS011;65428;53.194;6.132;2023-02-15T00:15:29;428.53;;;83.10;;
76566;SDS011;65428;53.194;6.132;2023-02-15T00:17:56;605.27;;;104.67;;
76566;SDS011;65428;53.194;6.132;2023-02-15T00:20:22;205.32;;;72.57;;
76566;SDS011;65428;53.194;6.132;2023-02-15T00:22:47;290.27;;;74.22;;
76566;SDS011;65428;53.194;6.132;2023-02-15T00:25:13;239.20;;;68.00;;
76566;SDS011;65428;53.194;6.132;2023-02-15T00:27:39;392.40;;;77.97;;
76566;SDS011;65428;53.194;6.132;2023-02-15T00:30:04;354.17;;;73.33;;
76566;SDS011;65428;53.194;6.132;2023-02-15T00:32:31;281.90;;;68.90;;
76566;SDS011;65428;53.194;6.132;2023-02-15T00:34:56;199.43;;;73.68;;
76566;SDS011;65428;53.194;6.132;2023-02-15T00:37:22;191.88;;;68.22;;
76566;SDS011;65428;53.194;6.132;2023-02-15T00:39:48;103.10;;;57.27;;
76566;SDS011;65428;53.194;6.132;2023-02-15T00:42:13;305.70;;;71.73;;
76566;SDS011;65428;53.194;6.132;2023-02-15T00:44:39;302.63;;;71.10;;
76566;SDS011;65428;53.194;6.132;2023-02-15T00:47:05;448.63;;;103.70;;
76566;SDS011;65428;53.194;6.132;2023-02-15T00:49:30;447.20;;;116.23;;
76566;SDS011;65428;53.194;6.132;2023-02-15T00:51:56;277.57;;;90.37;;
76566;SDS011;65428;53.194;6.132;2023-02-15T00:54:21;202.97;;;74.47;;
76566;SDS011;65428;53.194;6.132;2023-02-15T00:56:47;86.00;;;59.63;;
76566;SDS011;65428;53.194;6.132;2023-02-15T00:59:12;115.93;;;64.73;;
76566;SDS011;65428;53.194;6.132;2023-02-15T01:01:38;133.67;;;65.27;;
76566;SDS011;65428;53.194;6.132;2023-02-15T01:04:04;154.73;;;68.05;;
76566;SDS011;65428;53.194;6.132;2023-02-15T01:06:29;120.63;;;63.22;;
76566;SDS011;65428;53.194;6.132;2023-02-15T01:08:55;195.40;;;69.90;;
76566;SDS011;65428;53.194;6.132;2023-02-15T01:11:21;257.90;;;71.43;;
76566;SDS011;65428;53.194;6.132;2023-02-15T01:13:49;266.63;;;70.70;;
76566;SDS011;65428;53.194;6.132;2023-02-15T01:16:16;254.50;;;69.80;;
76566;SDS011;65428;53.194;6.132;2023-02-15T01:18:42;248.30;;;70.35;;
76566;SDS011;65428;53.194;6.132;2023-02-15T01:21:10;204.60;;;72.10;;
76566;SDS011;65428;53.194;6.132;2023-02-15T01:23:37;181.63;;;66.00;;
76566;SDS011;65428;53.194;6.132;2023-02-15T01:26:03;296.03;;;71.93;;
76566;SDS011;65428;53.194;6.132;2023-02-15T01:28:28;281.03;;;69.53;;
76566;SDS011;65428;53.194;6.132;2023-02-15T01:30:54;334.07;;;63.87;;
76566;SDS011;65428;53.194;6.132;2023-02-15T01:33:19;250.82;;;62.13;;
76566;SDS011;65428;53.194;6.132;2023-02-15T01:35:45;235.88;;;63.83;;
76566;SDS011;65428;53.194;6.132;2023-02-15T01:38:11;227.70;;;66.43;;
76566;SDS011;65428;53.194;6.132;2023-02-15T01:40:38;244.32;;;63.30;;
76566;SDS011;65428;53.194;6.132;2023-02-15T01:43:07;256.10;;;61.65;;
76566;SDS011;65428;53.194;6.132;2023-02-15T01:45:35;286.13;;;77.32;;
76566;SDS011;65428;53.194;6.132;2023-02-15T01:48:05;104.60;;;59.92;;
76566;SDS011;65428;53.194;6.132;2023-02-15T01:50:34;92.00;;;58.63;;
76566;SDS011;65428;53.194;6.132;2023-02-15T01:53:08;132.65;;;62.67;;
76566;SDS011;65428;53.194;6.132;2023-02-15T01:55:36;203.90;;;63.00;;
76566;SDS011;65428;53.194;6.132;2023-02-15T01:58:24;138.13;;;55.05;;
76566;SDS011;65428;53.194;6.132;2023-02-15T02:00:52;240.70;;;63.58;;
76566;SDS011;65428;53.194;6.132;2023-02-15T02:03:24;124.32;;;56.40;;
76566;SDS011;65428;53.194;6.132;2023-02-15T02:06:01;180.93;;;62.60;;
76566;SDS011;65428;53.194;6.132;2023-02-15T02:08:27;283.52;;;68.13;;
76566;SDS011;65428;53.194;6.132;2023-02-15T02:10:53;75.97;;;54.10;;
76566;SDS011;65428;53.194;6.132;2023-02-15T02:13:18;66.53;;;50.63;;
76566;SDS011;65428;53.194;6.132;2023-02-15T02:15:52;99.50;;;55.23;;
76566;SDS011;65428;53.194;6.132;2023-02-15T02:27:45;60.97;;;50.55;;
76566;SDS011;65428;53.194;6.132;2023-02-15T02:36:30;56.00;;;45.17;;
76566;SDS011;65428;53.194;6.132;2023-02-15T02:39:07;50.08;;;42.63;;
76566;SDS011;65428;53.194;6.132;2023-02-15T02:44:47;56.83;;;45.05;;
76566;SDS011;65428;53.194;6.132;2023-02-15T02:47:34;54.70;;;44.33;;
76566;SDS011;65428;53.194;6.132;2023-02-15T02:50:22;59.93;;;47.80;;
76566;SDS011;65428;53.194;6.132;2023-02-15T02:52:54;68.45;;;51.00;;
76566;SDS011;65428;53.194;6.132;2023-02-15T03:03:11;97.53;;;51.22;;
76566;SDS011;65428;53.194;6.132;2023-02-15T03:05:43;86.32;;;52.33;;
76566;SDS011;65428;53.194;6.132;2023-02-15T03:08:11;108.60;;;57.53;;
76566;SDS011;65428;53.194;6.132;2023-02-15T03:10:46;67.40;;;49.23;;
76566;SDS011;65428;53.194;6.132;2023-02-15T03:13:17;112.18;;;52.72;;
76566;SDS011;65428;53.194;6.132;2023-02-15T03:15:43;109.80;;;56.25;;
76566;SDS011;65428;53.194;6.132;2023-02-15T03:18:30;150.82;;;64.97;;
76566;SDS011;65428;53.194;6.132;2023-02-15T03:21:17;91.68;;;53.58;;
76566;SDS011;65428;53.194;6.132;2023-02-15T03:24:02;71.50;;;48.28;;
76566;SDS011;65428;53.194;6.132;2023-02-15T03:26:32;79.15;;;49.50;;
76566;SDS011;65428;53.194;6.132;2023-02-15T03:29:00;169.63;;;60.70;;
76566;SDS011;65428;53.194;6.132;2023-02-15T03:31:29;106.38;;;63.22;;
76566;SDS011;65428;53.194;6.132;2023-02-15T03:33:59;136.07;;;59.78;;
76566;SDS011;65428;53.194;6.132;2023-02-15T03:42:08;170.20;;;82.63;;
76566;SDS011;65428;53.194;6.132;2023-02-15T03:44:42;65.32;;;50.63;;
76566;SDS011;65428;53.194;6.132;2023-02-15T03:47:27;140.80;;;66.63;;
76566;SDS011;65428;53.194;6.132;2023-02-15T03:50:06;84.30;;;55.83;;
76566;SDS011;65428;53.194;6.132;2023-02-15T03:52:55;190.57;;;71.40;;
76566;SDS011;65428;53.194;6.132;2023-02-15T03:55:24;141.77;;;62.38;;
76566;SDS011;65428;53.194;6.132;2023-02-15T03:57:50;147.93;;;68.00;;
76566;SDS011;65428;53.194;6.132;2023-02-15T04:00:35;76.70;;;56.20;;
76566;SDS011;65428;53.194;6.132;2023-02-15T04:03:30;94.05;;;56.58;;
76566;SDS011;65428;53.194;6.132;2023-02-15T04:06:02;99.88;;;63.03;;
76566;SDS011;65428;53.194;6.132;2023-02-15T04:08:28;109.00;;;60.05;;
76566;SDS011;65428;53.194;6.132;2023-02-15T04:11:12;130.77;;;64.68;;
76566;SDS011;65428;53.194;6.132;2023-02-15T04:13:38;89.40;;;58.25;;
76566;SDS011;65428;53.194;6.132;2023-02-15T04:16:03;87.47;;;58.10;;
76566;SDS011;65428;53.194;6.132;2023-02-15T04:18:30;81.43;;;56.83;;
76566;SDS011;65428;53.194;6.132;2023-02-15T04:21:15;97.33;;;58.97;;
76566;SDS011;65428;53.194;6.132;2023-02-15T04:23:59;94.28;;;57.42;;
76566;SDS011;65428;53.194;6.132;2023-02-15T04:26:43;70.13;;;56.25;;
76566;SDS011;65428;53.194;6.132;2023-02-15T04:29:09;75.43;;;56.92;;
76566;SDS011;65428;53.194;6.132;2023-02-15T04:31:34;68.17;;;54.07;;
76566;SDS011;65428;53.194;6.132;2023-02-15T04:34:00;61.53;;;51.33;;
76566;SDS011;65428;53.194;6.132;2023-02-15T04:36:25;66.35;;;51.83;;
76566;SDS011;65428;53.194;6.132;2023-02-15T04:38:51;69.47;;;55.03;;
76566;SDS011;65428;53.194;6.132;2023-02-15T04:41:17;219.93;;;62.70;;
76566;SDS011;65428;53.194;6.132;2023-02-15T04:43:42;67.43;;;53.03;;
76566;SDS011;65428;53.194;6.132;2023-02-15T04:46:08;121.55;;;57.05;;
76566;SDS011;65428;53.194;6.132;2023-02-15T04:48:33;107.10;;;68.22;;
76566;SDS011;65428;53.194;6.132;2023-02-15T04:50:59;106.00;;;66.07;;
76566;SDS011;65428;53.194;6.132;2023-02-15T04:53:29;88.47;;;62.83;;
76566;SDS011;65428;53.194;6.132;2023-02-15T04:55:55;69.70;;;53.15;;
76566;SDS011;65428;53.194;6.132;2023-02-15T04:58:20;65.03;;;50.67;;
76566;SDS011;65428;53.194;6.132;2023-02-15T05:00:46;68.40;;;53.73;;
76566;SDS011;65428;53.194;6.132;2023-02-15T05:03:11;73.85;;;57.13;;
76566;SDS011;65428;53.194;6.132;2023-02-15T05:05:37;122.63;;;79.00;;
76566;SDS011;65428;53.194;6.132;2023-02-15T05:08:02;117.93;;;79.50;;
76566;SDS011;65428;53.194;6.132;2023-02-15T05:10:28;104.90;;;70.78;;
76566;SDS011;65428;53.194;6.132;2023-02-15T05:12:54;85.90;;;64.93;;
76566;SDS011;65428;53.194;6.132;2023-02-15T05:15:19;131.70;;;80.67;;
76566;SDS011;65428;53.194;6.132;2023-02-15T05:17:45;79.50;;;60.57;;
76566;SDS011;65428;53.194;6.132;2023-02-15T05:20:10;88.68;;;64.88;;
76566;SDS011;65428;53.194;6.132;2023-02-15T05:22:36;74.53;;;56.42;;
76566;SDS011;65428;53.194;6.132;2023-02-15T05:25:02;79.15;;;60.13;;
76566;SDS011;65428;53.194;6.132;2023-02-15T05:27:46;87.20;;;62.65;;
76566;SDS011;65428;53.194;6.132;2023-02-15T05:30:30;73.53;;;57.05;;
76566;SDS011;65428;53.194;6.132;2023-02-15T05:32:56;75.13;;;58.42;;
76566;SDS011;65428;53.194;6.132;2023-02-15T05:35:21;94.43;;;69.85;;
76566;SDS011;65428;53.194;6.132;2023-02-15T05:37:47;84.32;;;60.85;;
76566;SDS011;65428;53.194;6.132;2023-02-15T05:40:13;74.93;;;58.57;;
76566;SDS011;65428;53.194;6.132;2023-02-15T05:42:38;89.63;;;65.30;;
76566;SDS011;65428;53.194;6.132;2023-02-15T05:45:04;94.93;;;68.83;;
76566;SDS011;65428;53.194;6.132;2023-02-15T05:47:30;167.80;;;96.32;;
76566;SDS011;65428;53.194;6.132;2023-02-15T05:49:56;210.47;;;110.03;;
76566;SDS011;65428;53.194;6.132;2023-02-15T05:52:21;174.63;;;96.23;;
76566;SDS011;65428;53.194;6.132;2023-02-15T05:54:47;150.55;;;90.07;;
76566;SDS011;65428;53.194;6.132;2023-02-15T05:57:13;183.48;;;97.82;;
76566;SDS011;65428;53.194;6.132;2023-02-15T05:59:39;149.45;;;88.93;;
76566;SDS011;65428;53.194;6.132;2023-02-15T06:02:04;106.70;;;73.40;;
76566;SDS011;65428;53.194;6.132;2023-02-15T06:04:31;150.23;;;89.03;;
76566;SDS011;65428;53.194;6.132;2023-02-15T06:06:57;124.37;;;78.50;;
76566;SDS011;65428;53.194;6.132;2023-02-15T06:09:22;189.43;;;97.77;;
76566;SDS011;65428;53.194;6.132;2023-02-15T06:11:48;247.98;;;118.82;;
76566;SDS011;65428;53.194;6.132;2023-02-15T06:14:14;242.95;;;117.57;;
76566;SDS011;65428;53.194;6.132;2023-02-15T06:16:39;168.05;;;96.40;;
76566;SDS011;65428;53.194;6.132;2023-02-15T06:19:05;119.93;;;76.38;;
76566;SDS011;65428;53.194;6.132;2023-02-15T06:21:31;218.07;;;110.30;;
76566;SDS011;65428;53.194;6.132;2023-02-15T06:23:57;248.13;;;116.82;;
76566;SDS011;65428;53.194;6.132;2023-02-15T06:26:23;232.73;;;111.28;;
76566;SDS011;65428;53.194;6.132;2023-02-15T06:28:49;295.05;;;124.78;;
76566;SDS011;65428;53.194;6.132;2023-02-15T06:31:15;272.52;;;123.03;;
76566;SDS011;65428;53.194;6.132;2023-02-15T06:33:40;275.35;;;120.38;;
76566;SDS011;65428;53.194;6.132;2023-02-15T06:36:06;286.33;;;122.00;;
76566;SDS011;65428;53.194;6.132;2023-02-15T06:38:32;268.40;;;115.80;;
76566;SDS011;65428;53.194;6.132;2023-02-15T06:40:58;284.38;;;117.70;;
76566;SDS011;65428;53.194;6.132;2023-02-15T06:43:23;244.30;;;111.00;;
76566;SDS011;65428;53.194;6.132;2023-02-15T06:45:49;146.43;;;87.57;;
76566;SDS011;65428;53.194;6.132;2023-02-15T06:48:14;204.57;;;103.53;;
76566;SDS011;65428;53.194;6.132;2023-02-15T06:50:40;213.70;;;104.22;;
76566;SDS011;65428;53.194;6.132;2023-02-15T06:53:06;254.55;;;113.88;;
76566;SDS011;65428;53.194;6.132;2023-02-15T06:55:32;258.13;;;107.97;;
76566;SDS011;65428;53.194;6.132;2023-02-15T06:57:58;237.95;;;116.60;;
76566;SDS011;65428;53.194;6.132;2023-02-15T07:00:24;252.10;;;111.07;;
76566;SDS011;65428;53.194;6.132;2023-02-15T07:02:56;161.80;;;89.33;;
76566;SDS011;65428;53.194;6.132;2023-02-15T07:05:23;189.10;;;101.10;;
76566;SDS011;65428;53.194;6.132;2023-02-15T07:07:56;224.15;;;104.88;;
76566;SDS011;65428;53.194;6.132;2023-02-15T07:10:22;213.13;;;100.78;;
76566;SDS011;65428;53.194;6.132;2023-02-15T07:12:48;240.90;;;110.22;;
76566;SDS011;65428;53.194;6.132;2023-02-15T07:15:17;206.13;;;97.82;;
76566;SDS011;65428;53.194;6.132;2023-02-15T07:17:45;224.68;;;104.07;;
76566;SDS011;65428;53.194;6.132;2023-02-15T07:20:14;254.13;;;116.03;;
76566;SDS011;65428;53.194;6.132;2023-02-15T07:22:42;227.25;;;106.30;;
76566;SDS011;65428;53.194;6.132;2023-02-15T07:25:08;205.10;;;98.20;;
76566;SDS011;65428;53.194;6.132;2023-02-15T07:27:35;247.18;;;115.85;;
76566;SDS011;65428;53.194;6.132;2023-02-15T07:30:01;183.63;;;96.97;;
76566;SDS011;65428;53.194;6.132;2023-02-15T07:32:28;224.05;;;109.32;;
76566;SDS011;65428;53.194;6.132;2023-02-15T07:34:54;240.07;;;114.10;;
76566;SDS011;65428;53.194;6.132;2023-02-15T07:37:20;249.13;;;116.95;;
76566;SDS011;65428;53.194;6.132;2023-02-15T07:39:45;229.73;;;107.80;;
76566;SDS011;65428;53.194;6.132;2023-02-15T07:42:11;218.03;;;108.70;;
76566;SDS011;65428;53.194;6.132;2023-02-15T07:44:37;176.25;;;92.35;;
76566;SDS011;65428;53.194;6.132;2023-02-15T07:47:02;215.80;;;103.63;;
76566;SDS011;65428;53.194;6.132;2023-02-15T07:49:28;217.10;;;106.50;;
76566;SDS011;65428;53.194;6.132;2023-02-15T07:51:53;237.30;;;108.07;;
76566;SDS011;65428;53.194;6.132;2023-02-15T07:54:19;174.10;;;92.50;;
76566;SDS011;65428;53.194;6.132;2023-02-15T07:56:45;163.95;;;91.55;;
76566;SDS011;65428;53.194;6.132;2023-02-15T07:59:10;193.88;;;96.88;;
76566;SDS011;65428;53.194;6.132;2023-02-15T08:01:37;163.17;;;91.90;;
76566;SDS011;65428;53.194;6.132;2023-02-15T08:04:04;175.80;;;90.30;;
76566;SDS011;65428;53.194;6.132;2023-02-15T08:06:33;170.88;;;89.97;;
76566;SDS011;65428;53.194;6.132;2023-02-15T08:08:59;179.68;;;93.15;;
76566;SDS011;65428;53.194;6.132;2023-02-15T08:11:27;170.00;;;93.88;;
76566;SDS011;65428;53.194;6.132;2023-02-15T08:16:31;130.53;;;79.03;;
76566;SDS011;65428;53.194;6.132;2023-02-15T08:18:59;156.88;;;87.15;;
76566;SDS011;65428;53.194;6.132;2023-02-15T08:21:52;150.65;;;86.82;;
76566;SDS011;65428;53.194;6.132;2023-02-15T08:24:20;135.67;;;82.37;;
76566;SDS011;65428;53.194;6.132;2023-02-15T08:26:47;137.38;;;77.18;;
76566;SDS011;65428;53.194;6.132;2023-02-15T08:29:14;143.15;;;79.82;;
76566;SDS011;65428;53.194;6.132;2023-02-15T08:31:41;130.40;;;81.55;;
76566;SDS011;65428;53.194;6.132;2023-02-15T08:34:11;131.68;;;80.78;;
76566;SDS011;65428;53.194;6.132;2023-02-15T08:36:39;112.00;;;71.72;;
76566;SDS011;65428;53.194;6.132;2023-02-15T08:39:06;113.45;;;72.85;;
76566;SDS011;65428;53.194;6.132;2023-02-15T08:41:36;106.55;;;69.75;;
76566;SDS011;65428;53.194;6.132;2023-02-15T08:44:04;109.47;;;70.47;;
76566;SDS011;65428;53.194;6.132;2023-02-15T08:46:32;106.33;;;69.07;;
76566;SDS011;65428;53.194;6.132;2023-02-15T08:48:59;101.63;;;66.38;;
76566;SDS011;65428;53.194;6.132;2023-02-15T08:51:32;110.10;;;66.63;;
76566;SDS011;65428;53.194;6.132;2023-02-15T08:54:01;111.57;;;70.60;;
76566;SDS011;65428;53.194;6.132;2023-02-15T08:56:29;107.20;;;67.53;;
76566;SDS011;65428;53.194;6.132;2023-02-15T08:58:58;106.43;;;68.05;;
76566;SDS011;65428;53.194;6.132;2023-02-15T09:01:25;113.13;;;69.23;;
76566;SDS011;65428;53.194;6.132;2023-02-15T09:03:57;108.90;;;69.20;;
76566;SDS011;65428;53.194;6.132;2023-02-15T09:06:25;116.07;;;73.90;;
76566;SDS011;65428;53.194;6.132;2023-02-15T09:08:51;96.57;;;65.63;;
76566;SDS011;65428;53.194;6.132;2023-02-15T09:11:19;88.03;;;61.43;;
76566;SDS011;65428;53.194;6.132;2023-02-15T09:13:51;94.00;;;63.92;;
76566;SDS011;65428;53.194;6.132;2023-02-15T09:16:21;86.75;;;59.15;;
76566;SDS011;65428;53.194;6.132;2023-02-15T09:18:47;89.25;;;59.80;;
76566;SDS011;65428;53.194;6.132;2023-02-15T09:21:14;84.03;;;58.40;;
76566;SDS011;65428;53.194;6.132;2023-02-15T09:23:42;82.50;;;56.80;;
76566;SDS011;65428;53.194;6.132;2023-02-15T09:26:10;75.53;;;55.05;;
76566;SDS011;65428;53.194;6.132;2023-02-15T09:28:41;79.10;;;55.77;;
76566;SDS011;65428;53.194;6.132;2023-02-15T09:31:11;78.20;;;56.07;;
76566;SDS011;65428;53.194;6.132;2023-02-15T09:33:37;85.90;;;58.15;;
76566;SDS011;65428;53.194;6.132;2023-02-15T09:36:04;80.63;;;57.05;;
76566;SDS011;65428;53.194;6.132;2023-02-15T09:38:38;84.22;;;61.05;;
76566;SDS011;65428;53.194;6.132;2023-02-15T09:54:57;78.88;;;56.70;;
76566;SDS011;65428;53.194;6.132;2023-02-15T10:14:09;126.47;;;107.57;;
76566;SDS011;65428;53.194;6.132;2023-02-15T10:19:21;83.70;;;72.43;;
76566;SDS011;65428;53.194;6.132;2023-02-15T10:27:26;66.75;;;54.70;;
76566;SDS011;65428;53.194;6.132;2023-02-15T10:30:08;61.08;;;51.63;;
76566;SDS011;65428;53.194;6.132;2023-02-15T10:32:42;58.75;;;51.13;;
76566;SDS011;65428;53.194;6.132;2023-02-15T10:35:40;62.88;;;54.05;;
76566;SDS011;65428;53.194;6.132;2023-02-15T10:38:40;58.38;;;51.15;;
76566;SDS011;65428;53.194;6.132;2023-02-15T10:44:00;60.45;;;51.55;;
76566;SDS011;65428;53.194;6.132;2023-02-15T10:46:45;57.83;;;49.40;;
76566;SDS011;65428;53.194;6.132;2023-02-15T10:54:49;55.63;;;45.87;;
76566;SDS011;65428;53.194;6.132;2023-02-15T10:57:36;57.67;;;50.27;;
76566;SDS011;65428;53.194;6.132;2023-02-15T11:00:28;58.92;;;51.03;;
76566;SDS011;65428;53.194;6.132;2023-02-15T11:06:00;57.00;;;49.27;;
76566;SDS011;65428;53.194;6.132;2023-02-15T11:08:30;58.83;;;51.58;;
76566;SDS011;65428;53.194;6.132;2023-02-15T11:11:00;64.40;;;56.75;;
76566;SDS011;65428;53.194;6.132;2023-02-15T11:13:32;57.75;;;51.45;;
76566;SDS011;65428;53.194;6.132;2023-02-15T11:16:04;54.65;;;47.25;;
76566;SDS011;65428;53.194;6.132;2023-02-15T11:21:19;50.45;;;43.58;;
76566;SDS011;65428;53.194;6.132;2023-02-15T11:23:51;53.17;;;45.20;;
76566;SDS011;65428;53.194;6.132;2023-02-15T11:26:22;52.17;;;46.47;;
76566;SDS011;65428;53.194;6.132;2023-02-15T11:28:55;47.90;;;41.28;;
76566;SDS011;65428;53.194;6.132;2023-02-15T11:31:26;44.53;;;39.00;;
76566;SDS011;65428;53.194;6.132;2023-02-15T11:34:01;46.05;;;39.15;;
76566;SDS011;65428;53.194;6.132;2023-02-15T11:36:37;46.22;;;39.60;;
76566;SDS011;65428;53.194;6.132;2023-02-15T11:39:09;43.75;;;37.38;;
76566;SDS011;65428;53.194;6.132;2023-02-15T11:41:40;40.95;;;35.63;;
76566;SDS011;65428;53.194;6.132;2023-02-15T11:46:45;37.47;;;32.38;;
76566;SDS011;65428;53.194;6.132;2023-02-15T11:49:22;39.85;;;34.15;;
76566;SDS011;65428;53.194;6.132;2023-02-15T11:51:58;38.57;;;33.07;;
76566;SDS011;65428;53.194;6.132;2023-02-15T11:54:33;40.42;;;33.33;;
76566;SDS011;65428;53.194;6.132;2023-02-15T11:59:47;41.72;;;34.72;;
76566;SDS011;65428;53.194;6.132;2023-02-15T12:02:33;41.30;;;33.85;;
76566;SDS011;65428;53.194;6.132;2023-02-15T12:05:21;40.45;;;34.70;;
76566;SDS011;65428;53.194;6.132;2023-02-15T12:07:57;39.40;;;33.75;;
76566;SDS011;65428;53.194;6.132;2023-02-15T12:10:30;39.03;;;33.53;;
76566;SDS011;65428;53.194;6.132;2023-02-15T12:15:45;44.20;;;36.28;;
76566;SDS011;65428;53.194;6.132;2023-02-15T12:18:21;40.17;;;34.70;;
76566;SDS011;65428;53.194;6.132;2023-02-15T12:20:52;42.05;;;34.47;;
76566;SDS011;65428;53.194;6.132;2023-02-15T12:23:23;40.97;;;34.50;;
76566;SDS011;65428;53.194;6.132;2023-02-15T12:25:52;41.57;;;35.47;;
76566;SDS011;65428;53.194;6.132;2023-02-15T12:30:57;45.45;;;38.40;;
76566;SDS011;65428;53.194;6.132;2023-02-15T12:38:29;45.53;;;38.03;;
76566;SDS011;65428;53.194;6.132;2023-02-15T12:40:59;45.20;;;37.50;;
76566;SDS011;65428;53.194;6.132;2023-02-15T12:43:34;51.70;;;43.08;;
76566;SDS011;65428;53.194;6.132;2023-02-15T12:49:04;72.80;;;59.85;;
76566;SDS011;65428;53.194;6.132;2023-02-15T12:51:31;86.57;;;71.97;;
76566;SDS011;65428;53.194;6.132;2023-02-15T12:54:15;78.80;;;65.75;;
76566;SDS011;65428;53.194;6.132;2023-02-15T12:56:42;54.17;;;45.00;;
76566;SDS011;65428;53.194;6.132;2023-02-15T12:59:12;46.03;;;38.50;;
76566;SDS011;65428;53.194;6.132;2023-02-15T13:01:39;52.80;;;43.20;;
76566;SDS011;65428;53.194;6.132;2023-02-15T13:04:14;52.28;;;44.35;;
76566;SDS011;65428;53.194;6.132;2023-02-15T13:06:48;50.07;;;42.07;;
76566;SDS011;65428;53.194;6.132;2023-02-15T13:11:42;46.43;;;37.93;;
76566;SDS011;65428;53.194;6.132;2023-02-15T13:14:19;42.95;;;35.30;;
76566;SDS011;65428;53.194;6.132;2023-02-15T13:16:58;40.75;;;32.50;;
76566;SDS011;65428;53.194;6.132;2023-02-15T13:19:31;38.63;;;30.80;;
76566;SDS011;65428;53.194;6.132;2023-02-15T13:22:22;38.13;;;30.23;;
76566;SDS011;65428;53.194;6.132;2023-02-15T13:25:05;37.38;;;30.00;;
76566;SDS011;65428;53.194;6.132;2023-02-15T13:27:48;36.03;;;28.95;;
76566;SDS011;65428;53.194;6.132;2023-02-15T13:30:27;36.60;;;29.17;;
76566;SDS011;65428;53.194;6.132;2023-02-15T13:33:06;38.17;;;29.52;;
76566;SDS011;65428;53.194;6.132;2023-02-15T13:36:00;35.47;;;28.50;;
76566;SDS011;65428;53.194;6.132;2023-02-15T13:41:12;37.30;;;30.57;;
76566;SDS011;65428;53.194;6.132;2023-02-15T13:46:55;38.30;;;30.50;;
76566;SDS011;65428;53.194;6.132;2023-02-15T13:52:15;40.00;;;32.42;;
76566;SDS011;65428;53.194;6.132;2023-02-15T13:54:53;39.20;;;31.25;;
76566;SDS011;65428;53.194;6.132;2023-02-15T13:57:40;40.28;;;31.52;;
76566;SDS011;65428;53.194;6.132;2023-02-15T14:03:07;40.67;;;32.90;;
76566;SDS011;65428;53.194;6.132;2023-02-15T14:17:18;43.83;;;34.25;;
76566;SDS011;65428;53.194;6.132;2023-02-15T14:22:35;42.60;;;35.20;;
76566;SDS011;65428;53.194;6.132;2023-02-15T14:28:05;42.53;;;33.97;;
76566;SDS011;65428;53.194;6.132;2023-02-15T14:30:48;43.70;;;34.00;;
76566;SDS011;65428;53.194;6.132;2023-02-15T14:33:29;41.97;;;33.50;;
76566;SDS011;65428;53.194;6.132;2023-02-15T14:36:02;39.15;;;31.85;;
76566;SDS011;65428;53.194;6.132;2023-02-15T14:49:21;38.53;;;32.30;;
76566;SDS011;65428;53.194;6.132;2023-02-15T14:51:55;37.08;;;31.25;;
76566;SDS011;65428;53.194;6.132;2023-02-15T14:59:26;40.95;;;32.13;;
76566;SDS011;65428;53.194;6.132;2023-02-15T15:02:03;40.53;;;32.55;;
76566;SDS011;65428;53.194;6.132;2023-02-15T15:04:42;40.40;;;32.27;;
76566;SDS011;65428;53.194;6.132;2023-02-15T15:07:19;38.75;;;31.98;;
76566;SDS011;65428;53.194;6.132;2023-02-15T15:10:00;39.25;;;32.70;;
76566;SDS011;65428;53.194;6.132;2023-02-15T15:12:56;38.75;;;31.63;;
76566;SDS011;65428;53.194;6.132;2023-02-15T15:18:06;42.38;;;32.40;;
76566;SDS011;65428;53.194;6.132;2023-02-15T15:20:44;42.67;;;33.50;;
76566;SDS011;65428;53.194;6.132;2023-02-15T15:25:47;41.08;;;32.97;;
76566;SDS011;65428;53.194;6.132;2023-02-15T15:31:00;42.97;;;35.00;;
76566;SDS011;65428;53.194;6.132;2023-02-15T15:33:50;48.78;;;38.88;;
76566;SDS011;65428;53.194;6.132;2023-02-15T15:36:47;49.13;;;40.15;;
76566;SDS011;65428;53.194;6.132;2023-02-15T15:42:30;43.95;;;35.38;;
76566;SDS011;65428;53.194;6.132;2023-02-15T15:45:03;43.83;;;35.53;;
76566;SDS011;65428;53.194;6.132;2023-02-15T15:50:15;44.08;;;34.95;;
76566;SDS011;65428;53.194;6.132;2023-02-15T15:52:46;41.22;;;34.08;;
76566;SDS011;65428;53.194;6.132;2023-02-15T15:55:15;44.23;;;34.73;;
76566;SDS011;65428;53.194;6.132;2023-02-15T15:57:44;46.22;;;35.22;;
76566;SDS011;65428;53.194;6.132;2023-02-15T16:02:56;43.80;;;35.22;;
76566;SDS011;65428;53.194;6.132;2023-02-15T16:05:21;42.22;;;34.53;;
76566;SDS011;65428;53.194;6.132;2023-02-15T16:07:48;43.35;;;35.55;;
76566;SDS011;65428;53.194;6.132;2023-02-15T16:10:24;44.53;;;36.08;;
76566;SDS011;65428;53.194;6.132;2023-02-15T16:12:52;46.95;;;36.63;;
76566;SDS011;65428;53.194;6.132;2023-02-15T16:15:53;52.17;;;39.53;;
76566;SDS011;65428;53.194;6.132;2023-02-15T16:18:17;54.90;;;41.63;;
76566;SDS011;65428;53.194;6.132;2023-02-15T16:20:52;58.13;;;41.57;;
76566;SDS011;65428;53.194;6.132;2023-02-15T16:28:39;56.08;;;42.72;;
76566;SDS011;65428;53.194;6.132;2023-02-15T16:31:15;55.78;;;40.92;;
76566;SDS011;65428;53.194;6.132;2023-02-15T16:33:42;51.90;;;39.50;;
76566;SDS011;65428;53.194;6.132;2023-02-15T16:36:10;50.15;;;39.17;;
76566;SDS011;65428;53.194;6.132;2023-02-15T16:41:30;50.55;;;37.92;;
76566;SDS011;65428;53.194;6.132;2023-02-15T16:43:57;47.40;;;37.33;;
76566;SDS011;65428;53.194;6.132;2023-02-15T16:46:25;50.17;;;37.05;;
76566;SDS011;65428;53.194;6.132;2023-02-15T16:48:58;46.40;;;35.88;;
76566;SDS011;65428;53.194;6.132;2023-02-15T16:51:31;47.97;;;37.00;;
76566;SDS011;65428;53.194;6.132;2023-02-15T16:54:00;47.15;;;36.67;;
76566;SDS011;65428;53.194;6.132;2023-02-15T16:56:31;46.38;;;36.25;;
76566;SDS011;65428;53.194;6.132;2023-02-15T16:58:58;46.25;;;36.00;;
76566;SDS011;65428;53.194;6.132;2023-02-15T17:01:26;47.03;;;38.30;;
76566;SDS011;65428;53.194;6.132;2023-02-15T17:04:11;49.88;;;39.42;;
76566;SDS011;65428;53.194;6.132;2023-02-15T17:06:59;50.78;;;39.60;;
76566;SDS011;65428;53.194;6.132;2023-02-15T17:09:26;51.45;;;38.72;;
76566;SDS011;65428;53.194;6.132;2023-02-15T17:11:51;48.25;;;37.15;;
76566;SDS011;65428;53.194;6.132;2023-02-15T17:14:21;50.03;;;38.70;;
76566;SDS011;65428;53.194;6.132;2023-02-15T17:16:53;52.70;;;41.72;;
76566;SDS011;65428;53.194;6.132;2023-02-15T17:19:25;49.08;;;38.22;;
76566;SDS011;65428;53.194;6.132;2023-02-15T17:22:03;49.72;;;39.15;;
76566;SDS011;65428;53.194;6.132;2023-02-15T17:24:38;51.93;;;40.20;;
76566;SDS011;65428;53.194;6.132;2023-02-15T17:27:15;50.38;;;40.00;;
76566;SDS011;65428;53.194;6.132;2023-02-15T17:29:44;50.30;;;39.50;;
76566;SDS011;65428;53.194;6.132;2023-02-15T17:32:19;55.67;;;41.90;;